createdAt,value
2019-02-26T00:03:28.639Z,55.74
2019-02-26T00:07:34.114Z,56.59
2019-02-26T00:11:40.233Z,56.68
2019-02-26T00:15:46.014Z,56.43
2019-02-26T00:19:51.761Z,56.19
2019-02-26T00:23:56.649Z,56.04
2019-02-26T00:28:01.537Z,56.14
2019-02-26T00:32:07.112Z,56.37
2019-02-26T00:36:13.729Z,56.45
2019-02-26T00:40:20.336Z,56.25
2019-02-26T00:44:27.342Z,56.52
2019-02-26T00:48:33.632Z,56.46
2019-02-26T00:52:39.213Z,56.33
2019-02-26T00:56:45.104Z,56.89
2019-02-26T01:00:49.992Z,57.27
2019-02-26T01:04:54.885Z,57.15
2019-02-26T01:09:01.845Z,57.09
2019-02-26T01:13:08.920Z,57.04
2019-02-26T01:17:14.855Z,56.79
2019-02-26T01:21:24.142Z,56.34
2019-02-26T01:25:26.990Z,56.73
2019-02-26T01:29:32.349Z,58.07
2019-02-26T01:33:37.336Z,57.61
2019-02-26T01:37:42.225Z,57.50
2019-02-26T01:41:47.919Z,57.83
2019-02-26T01:45:55.382Z,57.57
2019-02-26T01:50:00.393Z,57.20
2019-02-26T01:54:07.387Z,57.02
2019-02-26T01:58:15.809Z,57.07
2019-02-26T02:02:20.276Z,57.00
2019-02-26T02:06:25.069Z,56.86
2019-02-26T02:10:29.955Z,56.63
2019-02-26T02:14:34.841Z,57.22
2019-02-26T02:18:43.764Z,57.83
2019-02-26T02:22:46.387Z,58.04
2019-02-26T02:26:53.543Z,58.13
2019-02-26T02:30:57.850Z,58.05
2019-02-26T02:35:04.398Z,57.75
2019-02-26T02:39:12.923Z,57.56
2019-02-26T02:43:17.980Z,57.57
2019-02-26T02:47:25.039Z,57.20
2019-02-26T02:51:31.473Z,57.61
2019-02-26T02:55:37.770Z,57.82
2019-02-26T02:59:42.461Z,58.68
2019-02-26T03:03:47.740Z,59.12
2019-02-26T03:07:56.260Z,59.13
2019-02-26T03:12:00.532Z,58.96
2019-02-26T03:16:05.411Z,59.03
2019-02-26T03:20:14.282Z,60.07
2019-02-26T03:24:19.173Z,60.76
2019-02-26T03:28:24.068Z,61.00
2019-02-26T03:32:28.960Z,60.73
2019-02-26T03:36:35.066Z,60.93
2019-02-26T03:40:40.437Z,60.67
2019-02-26T03:44:47.038Z,60.47
2019-02-26T03:48:52.076Z,59.96
2019-02-26T03:52:56.953Z,59.52
2019-02-26T03:57:01.918Z,59.06
2019-02-26T04:01:08.418Z,59.51
2019-02-26T04:05:14.531Z,59.53
2019-02-26T04:09:21.881Z,59.23
2019-02-26T04:13:25.999Z,60.03
2019-02-26T04:17:33.541Z,61.09
2019-02-26T04:22:15.256Z,60.67
2019-02-26T04:26:35.592Z,60.50
2019-02-26T04:30:56.513Z,60.16
2019-02-26T04:35:02.856Z,59.85
2019-02-26T04:39:26.171Z,59.57
2019-02-26T04:43:42.749Z,59.37
2019-02-26T04:47:58.323Z,59.15
2019-02-26T04:52:05.578Z,59.54
2019-02-26T04:56:12.766Z,59.89
2019-02-26T05:00:16.297Z,60.57
2019-02-26T05:04:21.177Z,60.75
2019-02-26T05:08:26.243Z,60.79
2019-02-26T05:12:34.154Z,61.69
2019-02-26T05:16:40.149Z,62.51
2019-02-26T05:20:48.128Z,62.46
2019-02-26T05:24:52.806Z,61.94
2019-02-26T05:28:57.495Z,61.36
2019-02-26T05:33:03.489Z,61.60
2019-02-26T05:37:10.998Z,61.40
2019-02-26T05:41:15.891Z,61.17
2019-02-26T05:45:21.994Z,60.84
2019-02-26T05:49:27.356Z,60.64
2019-02-26T05:53:32.250Z,60.55
2019-02-26T05:57:37.136Z,60.47
2019-02-26T06:01:43.769Z,60.30
2019-02-26T06:05:51.354Z,60.16
2019-02-26T06:09:56.425Z,61.09
2019-02-26T06:14:06.696Z,61.66
2019-02-26T06:18:08.447Z,61.62
2019-02-26T06:22:16.943Z,61.36
2019-02-26T06:26:19.902Z,61.13
2019-02-26T06:30:24.797Z,60.92
2019-02-26T06:34:29.694Z,60.82
2019-02-26T06:38:35.052Z,61.08
2019-02-26T06:42:40.391Z,60.81
2019-02-26T06:46:45.332Z,59.91
2019-02-26T06:50:50.252Z,60.29
2019-02-26T06:54:58.062Z,61.28
2019-02-26T06:59:05.765Z,62.00
2019-02-26T07:03:11.357Z,62.88
2019-02-26T07:07:16.240Z,62.13
2019-02-26T07:11:21.137Z,61.39
2019-02-26T07:15:28.810Z,60.53
2019-02-26T07:19:33.251Z,60.04
2019-02-26T07:23:40.001Z,60.07
2019-02-26T07:27:44.972Z,59.98
2019-02-26T07:31:51.723Z,59.92
2019-02-26T07:35:57.410Z,59.73
2019-02-26T07:40:05.234Z,59.58
2019-02-26T07:44:15.438Z,59.41
2019-02-26T07:48:18.692Z,59.30
2019-02-26T07:52:24.348Z,59.30
2019-02-26T07:56:32.077Z,59.29
2019-02-26T08:00:37.680Z,59.22
2019-02-26T08:04:43.641Z,59.22
2019-02-26T08:08:48.967Z,59.27
2019-02-26T08:12:53.896Z,59.56
2019-02-26T08:17:01.339Z,59.39
2019-02-26T08:21:05.402Z,59.26
2019-02-26T08:25:11.305Z,58.98
2019-02-26T08:29:16.213Z,58.85
2019-02-26T08:33:21.104Z,58.76
2019-02-26T08:37:26.009Z,59.18
2019-02-26T08:41:30.917Z,59.74
2019-02-26T08:45:35.808Z,59.26
2019-02-26T08:49:42.649Z,58.74
2019-02-26T08:53:49.406Z,58.16
2019-02-26T08:57:56.543Z,58.05
2019-02-26T09:02:01.331Z,56.87
2019-02-26T09:06:12.869Z,56.22
2019-02-26T09:10:22.709Z,55.81
2019-02-26T09:14:25.403Z,55.54
2019-02-26T09:18:31.539Z,55.30
2019-02-26T09:22:36.898Z,54.83
2019-02-26T09:26:41.804Z,54.24
2019-02-26T09:30:46.691Z,53.74
2019-02-26T09:34:52.100Z,53.16
2019-02-26T09:38:58.171Z,52.85
2019-02-26T09:43:03.078Z,52.37
2019-02-26T09:47:07.962Z,52.56
2019-02-26T09:51:14.767Z,52.06
2019-02-26T09:55:19.511Z,51.20
2019-02-26T09:59:26.320Z,50.20
2019-02-26T10:03:35.656Z,49.17
2019-02-26T10:07:38.731Z,48.55
2019-02-26T10:11:45.192Z,47.68
2019-02-26T10:15:50.382Z,46.92
2019-02-26T10:19:56.972Z,45.57
2019-02-26T10:24:02.793Z,44.76
2019-02-26T10:28:11.153Z,44.57
2019-02-26T10:32:15.067Z,43.11
2019-02-26T10:36:19.956Z,42.26
2019-02-26T10:40:34.285Z,41.87
2019-02-26T10:44:31.701Z,41.62
2019-02-26T10:48:36.633Z,41.17
2019-02-26T10:52:41.509Z,41.26
2019-02-26T10:56:46.657Z,40.43
2019-02-26T11:00:54.800Z,40.02
2019-02-26T11:04:58.911Z,39.80
2019-02-26T11:09:05.315Z,39.80
2019-02-26T11:13:12.996Z,39.25
2019-02-26T11:17:20.750Z,39.02
2019-02-26T11:21:25.038Z,38.13
2019-02-26T11:25:29.939Z,37.47
2019-02-26T11:29:36.399Z,37.67
2019-02-26T11:33:41.424Z,37.00
2019-02-26T11:37:47.288Z,37.12
2019-02-26T11:41:54.563Z,36.26
2019-02-26T11:46:01.488Z,36.02
2019-02-26T11:50:11.751Z,35.74
2019-02-26T11:54:17.721Z,35.94
2019-02-26T11:58:24.286Z,35.45
2019-02-26T12:02:33.395Z,36.01
2019-02-26T12:06:35.931Z,35.71
2019-02-26T12:10:40.856Z,35.44
2019-02-26T12:14:48.333Z,35.07
2019-02-26T12:18:52.349Z,35.83
2019-02-26T12:22:57.246Z,35.72
2019-02-26T12:27:02.151Z,34.61
2019-02-26T12:31:09.912Z,34.75
2019-02-26T12:35:15.894Z,34.96
2019-02-26T12:39:22.145Z,34.28
2019-02-26T12:43:26.971Z,34.54
2019-02-26T12:47:31.865Z,34.61
2019-02-26T12:51:36.766Z,34.00
2019-02-26T12:55:42.686Z,34.62
2019-02-26T12:59:47.749Z,34.77
2019-02-26T13:03:54.908Z,34.41
2019-02-26T13:07:59.250Z,33.93
2019-02-26T13:12:04.221Z,33.98
2019-02-26T13:16:09.119Z,33.98
2019-02-26T13:20:16.048Z,33.68
2019-02-26T13:24:26.106Z,34.03
2019-02-26T13:28:29.728Z,33.01
2019-02-26T13:32:54.107Z,33.43
2019-02-26T13:36:43.650Z,32.81
2019-02-26T13:40:48.003Z,32.90
2019-02-26T13:44:52.887Z,32.35
2019-02-26T13:48:57.795Z,32.47
2019-02-26T13:53:02.699Z,32.06
2019-02-26T13:57:09.161Z,32.18
2019-02-26T14:01:14.265Z,31.88
2019-02-26T14:05:19.149Z,31.64
2019-02-26T14:09:24.291Z,31.26
2019-02-26T14:13:29.191Z,30.46
2019-02-26T14:17:34.089Z,30.64
2019-02-26T14:21:38.986Z,30.82
2019-02-26T14:25:43.884Z,30.90
2019-02-26T14:29:48.777Z,30.38
2019-02-26T14:33:53.695Z,30.38
2019-02-26T14:37:58.590Z,30.19
2019-02-26T14:42:03.495Z,30.32
2019-02-26T14:46:08.388Z,30.40
2019-02-26T14:50:15.225Z,30.20
2019-02-26T14:54:20.300Z,29.77
2019-02-26T14:58:25.205Z,30.32
2019-02-26T15:02:30.098Z,30.41
2019-02-26T15:06:34.983Z,31.15
2019-02-26T15:10:39.880Z,31.35
2019-02-26T15:14:44.785Z,31.15
2019-02-26T15:18:49.704Z,30.50
2019-02-26T15:22:54.585Z,30.72
2019-02-26T15:26:59.469Z,30.53
2019-02-26T15:31:04.383Z,30.53
2019-02-26T15:35:09.446Z,30.23
2019-02-26T15:39:14.541Z,30.26
2019-02-26T15:43:19.442Z,30.73
2019-02-26T15:47:24.329Z,31.37
2019-02-26T15:51:29.262Z,31.64
2019-02-26T15:55:34.179Z,31.18
2019-02-26T15:59:39.090Z,31.39
2019-02-26T16:03:43.992Z,31.46
2019-02-26T16:07:48.877Z,31.88
2019-02-26T16:11:53.781Z,32.43
2019-02-26T16:15:58.679Z,32.59
2019-02-26T16:20:10.451Z,33.14
2019-02-26T16:24:15.353Z,33.15
2019-02-26T16:28:21.328Z,33.02
2019-02-26T16:32:26.233Z,33.50
2019-02-26T16:36:31.606Z,33.91
2019-02-26T16:40:37.112Z,34.91
2019-02-26T16:44:42.281Z,35.38
2019-02-26T16:48:47.176Z,35.09
2019-02-26T16:52:52.070Z,35.53
2019-02-26T16:56:56.972Z,36.79
2019-02-26T17:01:01.875Z,37.75
2019-02-26T17:05:14.331Z,38.79
2019-02-26T17:09:19.040Z,39.47
2019-02-26T17:13:24.473Z,40.06
2019-02-26T17:17:29.547Z,40.81
2019-02-26T17:21:34.449Z,41.28
2019-02-26T17:25:39.349Z,41.64
2019-02-26T17:29:44.239Z,42.12
2019-02-26T17:33:49.132Z,42.48
2019-02-26T17:37:54.064Z,42.94
2019-02-26T17:41:58.927Z,43.35
2019-02-26T17:46:03.998Z,43.97
2019-02-26T17:50:17.667Z,44.38
2019-02-26T17:54:22.569Z,44.63
2019-02-26T17:58:27.477Z,44.95
2019-02-26T18:02:32.400Z,45.22
2019-02-26T18:06:37.287Z,45.88
2019-02-26T18:10:42.178Z,45.97
2019-02-26T18:14:47.076Z,46.40
2019-02-26T18:18:51.988Z,46.61
2019-02-26T18:22:59.927Z,47.28
2019-02-26T18:27:03.669Z,47.56
2019-02-26T18:31:08.672Z,47.83
2019-02-26T18:35:13.569Z,48.28
2019-02-26T18:39:22.366Z,48.31
2019-02-26T18:43:25.198Z,48.46
2019-02-26T18:47:30.093Z,48.51
2019-02-26T18:51:36.409Z,48.72
2019-02-26T18:55:41.651Z,49.19
2019-02-26T18:59:46.544Z,49.20
2019-02-26T19:03:51.443Z,49.21
2019-02-26T19:07:56.346Z,49.57
2019-02-26T19:12:01.237Z,49.62
2019-02-26T19:16:06.289Z,49.94
2019-02-26T19:20:14.951Z,51.07
2019-02-26T19:24:20.492Z,50.65
2019-02-26T19:28:26.441Z,50.99
2019-02-26T19:32:32.509Z,51.29
2019-02-26T19:36:37.391Z,51.36
2019-02-26T19:40:54.349Z,51.64
2019-02-26T19:44:59.239Z,52.29
2019-02-26T19:49:05.713Z,52.33
2019-02-26T19:53:10.875Z,52.34
2019-02-26T19:57:15.697Z,52.53
2019-02-26T20:01:20.594Z,52.42
2019-02-26T20:05:25.487Z,52.09
2019-02-26T20:09:30.393Z,52.21
2019-02-26T20:13:35.287Z,52.06
2019-02-26T20:17:40.252Z,52.44
2019-02-26T20:21:45.141Z,53.03
2019-02-26T20:25:50.041Z,52.97
2019-02-26T20:29:54.937Z,52.85
2019-02-26T20:33:59.830Z,52.92
2019-02-26T20:38:04.704Z,53.05
2019-02-26T20:42:09.611Z,52.86
2019-02-26T20:46:14.504Z,53.27
2019-02-26T20:50:21.090Z,53.57
2019-02-26T20:54:26.029Z,53.52
2019-02-26T20:58:30.924Z,53.09
2019-02-26T21:02:35.811Z,53.12
2019-02-26T21:06:40.712Z,52.99
2019-02-26T21:10:45.875Z,52.92
2019-02-26T21:14:52.192Z,52.63
2019-02-26T21:18:57.084Z,52.65
2019-02-26T21:23:01.969Z,52.83
2019-02-26T21:27:06.854Z,52.97
2019-02-26T21:31:11.744Z,53.10
2019-02-26T21:35:20.194Z,53.01
2019-02-26T21:39:23.212Z,53.25
2019-02-26T21:43:28.104Z,53.14
2019-02-26T21:47:33.008Z,53.25
2019-02-26T21:51:37.903Z,52.97
2019-02-26T21:55:44.332Z,53.21
2019-02-26T21:59:50.130Z,53.36
2019-02-26T22:03:58.476Z,53.34
2019-02-26T22:08:02.774Z,53.30
2019-02-26T22:12:07.660Z,53.40
2019-02-26T22:16:14.947Z,53.17
2019-02-26T22:20:35.504Z,53.84
2019-02-26T22:24:26.556Z,54.10
2019-02-26T22:28:31.449Z,54.15
2019-02-26T22:32:36.334Z,54.11
2019-02-26T22:36:41.220Z,53.69
2019-02-26T22:40:46.103Z,53.82
2019-02-26T22:44:54.564Z,53.94
2019-02-26T22:48:58.648Z,53.74
2019-02-26T22:53:04.089Z,53.76
2019-02-26T22:57:09.494Z,53.56
2019-02-26T23:01:30.281Z,53.31
2019-02-26T23:05:31.905Z,53.03
2019-02-26T23:09:37.410Z,52.77
2019-02-26T23:13:43.534Z,52.80
2019-02-26T23:17:48.602Z,52.86
2019-02-26T23:21:53.484Z,53.05
2019-02-26T23:25:58.440Z,53.09
2019-02-26T23:30:05.639Z,53.02
2019-02-26T23:34:11.904Z,52.85
2019-02-26T23:38:16.794Z,53.25
2019-02-26T23:42:21.680Z,53.14
2019-02-26T23:46:29.577Z,53.15
2019-02-26T23:50:34.228Z,53.26
2019-02-26T23:54:39.934Z,53.01
2019-02-26T23:58:45.285Z,52.86
